sensor_id;sensor_type;location;lat;lon;timestamp;P1;durP1;ratioP1;P2;durP2;ratioP2
2023;SDS011;1016;48.770;9.154;2023-07-09T00:02:11;25.90;;;4.20;;
2023;SDS011;1016;48.770;9.154;2023-07-09T00:04:37;25.52;;;4.00;;
2023;SDS011;1016;48.770;9.154;2023-07-09T00:07:03;25.37;;;4.07;;
2023;SDS011;1016;48.770;9.154;2023-07-09T00:09:29;25.95;;;3.90;;
2023;SDS011;1016;48.770;9.154;2023-07-09T00:11:55;27.05;;;4.20;;
2023;SDS011;1016;48.770;9.154;2023-07-09T00:14:21;26.63;;;4.40;;
2023;SDS011;1016;48.770;9.154;2023-07-09T00:16:47;27.10;;;4.10;;
2023;SDS011;1016;48.770;9.154;2023-07-09T00:19:14;26.13;;;4.10;;
2023;SDS011;1016;48.770;9.154;2023-07-09T00:21:43;27.75;;;4.47;;
2023;SDS011;1016;48.770;9.154;2023-07-09T00:24:11;26.60;;;4.40;;
2023;SDS011;1016;48.770;9.154;2023-07-09T00:26:37;27.20;;;4.05;;
2023;SDS011;1016;48.770;9.154;2023-07-09T00:29:07;26.10;;;4.10;;
2023;SDS011;1016;48.770;9.154;2023-07-09T00:31:36;26.63;;;4.60;;
2023;SDS011;1016;48.770;9.154;2023-07-09T00:34:09;25.98;;;4.53;;
2023;SDS011;1016;48.770;9.154;2023-07-09T00:36:39;26.88;;;4.60;;
2023;SDS011;1016;48.770;9.154;2023-07-09T00:39:08;27.80;;;4.37;;
2023;SDS011;1016;48.770;9.154;2023-07-09T00:41:42;27.67;;;4.50;;
2023;SDS011;1016;48.770;9.154;2023-07-09T00:49:14;26.42;;;4.28;;
2023;SDS011;1016;48.770;9.154;2023-07-09T00:51:45;26.13;;;4.60;;
2023;SDS011;1016;48.770;9.154;2023-07-09T00:54:24;27.25;;;4.53;;
2023;SDS011;1016;48.770;9.154;2023-07-09T00:56:59;25.90;;;4.10;;
2023;SDS011;1016;48.770;9.154;2023-07-09T00:59:31;25.48;;;4.00;;
2023;SDS011;1016;48.770;9.154;2023-07-09T01:01:57;26.15;;;4.30;;
2023;SDS011;1016;48.770;9.154;2023-07-09T01:04:25;26.13;;;4.40;;
2023;SDS011;1016;48.770;9.154;2023-07-09T01:06:52;26.88;;;4.50;;
2023;SDS011;1016;48.770;9.154;2023-07-09T01:09:20;25.95;;;4.20;;
2023;SDS011;1016;48.770;9.154;2023-07-09T01:11:47;26.55;;;4.60;;
2023;SDS011;1016;48.770;9.154;2023-07-09T01:14:15;27.20;;;4.40;;
2023;SDS011;1016;48.770;9.154;2023-07-09T01:16:47;26.05;;;4.10;;
2023;SDS011;1016;48.770;9.154;2023-07-09T01:19:27;26.42;;;4.40;;
2023;SDS011;1016;48.770;9.154;2023-07-09T01:21:58;26.77;;;4.30;;
2023;SDS011;1016;48.770;9.154;2023-07-09T01:27:12;26.07;;;4.10;;
2023;SDS011;1016;48.770;9.154;2023-07-09T01:29:38;27.05;;;4.20;;
2023;SDS011;1016;48.770;9.154;2023-07-09T01:32:05;26.77;;;4.33;;
2023;SDS011;1016;48.770;9.154;2023-07-09T01:34:31;26.20;;;4.00;;
2023;SDS011;1016;48.770;9.154;2023-07-09T01:36:57;26.60;;;4.32;;
2023;SDS011;1016;48.770;9.154;2023-07-09T01:39:22;25.70;;;4.20;;
2023;SDS011;1016;48.770;9.154;2023-07-09T01:41:48;26.07;;;4.30;;
2023;SDS011;1016;48.770;9.154;2023-07-09T01:44:14;26.50;;;4.38;;
2023;SDS011;1016;48.770;9.154;2023-07-09T01:46:39;25.93;;;4.27;;
2023;SDS011;1016;48.770;9.154;2023-07-09T01:49:06;25.70;;;4.30;;
2023;SDS011;1016;48.770;9.154;2023-07-09T01:51:33;25.90;;;3.90;;
2023;SDS011;1016;48.770;9.154;2023-07-09T01:54:01;26.85;;;4.07;;
2023;SDS011;1016;48.770;9.154;2023-07-09T01:56:26;25.43;;;4.00;;
2023;SDS011;1016;48.770;9.154;2023-07-09T01:58:52;30.02;;;5.00;;
2023;SDS011;1016;48.770;9.154;2023-07-09T02:01:18;25.93;;;4.50;;
2023;SDS011;1016;48.770;9.154;2023-07-09T02:03:44;26.75;;;4.30;;
2023;SDS011;1016;48.770;9.154;2023-07-09T02:06:10;26.42;;;4.10;;
2023;SDS011;1016;48.770;9.154;2023-07-09T02:08:36;26.00;;;4.30;;
2023;SDS011;1016;48.770;9.154;2023-07-09T02:11:02;26.95;;;4.30;;
2023;SDS011;1016;48.770;9.154;2023-07-09T02:13:27;28.87;;;4.50;;
2023;SDS011;1016;48.770;9.154;2023-07-09T02:15:53;26.23;;;4.50;;
2023;SDS011;1016;48.770;9.154;2023-07-09T02:18:18;26.60;;;4.60;;
2023;SDS011;1016;48.770;9.154;2023-07-09T02:20:47;26.80;;;4.50;;
2023;SDS011;1016;48.770;9.154;2023-07-09T02:23:13;26.53;;;4.20;;
2023;SDS011;1016;48.770;9.154;2023-07-09T02:25:38;26.90;;;4.70;;
2023;SDS011;1016;48.770;9.154;2023-07-09T02:28:04;26.40;;;4.40;;
2023;SDS011;1016;48.770;9.154;2023-07-09T02:30:29;26.07;;;4.60;;
2023;SDS011;1016;48.770;9.154;2023-07-09T02:32:55;26.02;;;4.50;;
2023;SDS011;1016;48.770;9.154;2023-07-09T02:35:21;26.13;;;4.50;;
2023;SDS011;1016;48.770;9.154;2023-07-09T02:37:47;26.70;;;4.80;;
2023;SDS011;1016;48.770;9.154;2023-07-09T02:40:13;26.87;;;4.20;;
2023;SDS011;1016;48.770;9.154;2023-07-09T02:42:40;27.42;;;4.80;;
2023;SDS011;1016;48.770;9.154;2023-07-09T02:45:05;26.70;;;4.50;;
2023;SDS011;1016;48.770;9.154;2023-07-09T02:47:31;27.40;;;4.57;;
2023;SDS011;1016;48.770;9.154;2023-07-09T02:49:57;26.42;;;4.50;;
2023;SDS011;1016;48.770;9.154;2023-07-09T02:52:22;28.13;;;4.57;;
2023;SDS011;1016;48.770;9.154;2023-07-09T02:54:48;25.30;;;4.23;;
2023;SDS011;1016;48.770;9.154;2023-07-09T02:57:13;26.50;;;4.50;;
2023;SDS011;1016;48.770;9.154;2023-07-09T02:59:39;25.80;;;4.18;;
2023;SDS011;1016;48.770;9.154;2023-07-09T03:02:04;25.90;;;4.40;;
2023;SDS011;1016;48.770;9.154;2023-07-09T03:04:30;26.73;;;4.70;;
2023;SDS011;1016;48.770;9.154;2023-07-09T03:06:56;26.02;;;4.60;;
2023;SDS011;1016;48.770;9.154;2023-07-09T03:09:21;26.20;;;4.60;;
2023;SDS011;1016;48.770;9.154;2023-07-09T03:11:47;27.58;;;4.80;;
2023;SDS011;1016;48.770;9.154;2023-07-09T03:14:13;27.57;;;6.20;;
2023;SDS011;1016;48.770;9.154;2023-07-09T03:16:39;28.45;;;6.28;;
2023;SDS011;1016;48.770;9.154;2023-07-09T03:19:05;26.67;;;5.40;;
2023;SDS011;1016;48.770;9.154;2023-07-09T03:21:31;27.10;;;4.82;;
2023;SDS011;1016;48.770;9.154;2023-07-09T03:23:57;26.42;;;4.63;;
2023;SDS011;1016;48.770;9.154;2023-07-09T03:26:23;25.83;;;4.60;;
2023;SDS011;1016;48.770;9.154;2023-07-09T03:28:50;25.77;;;4.40;;
2023;SDS011;1016;48.770;9.154;2023-07-09T03:31:16;27.55;;;4.68;;
2023;SDS011;1016;48.770;9.154;2023-07-09T03:33:42;26.33;;;4.75;;
2023;SDS011;1016;48.770;9.154;2023-07-09T03:36:08;26.43;;;4.80;;
2023;SDS011;1016;48.770;9.154;2023-07-09T03:38:33;26.53;;;4.50;;
2023;SDS011;1016;48.770;9.154;2023-07-09T03:40:59;26.27;;;4.50;;
2023;SDS011;1016;48.770;9.154;2023-07-09T03:43:24;26.63;;;4.47;;
2023;SDS011;1016;48.770;9.154;2023-07-09T03:45:50;26.90;;;4.50;;
2023;SDS011;1016;48.770;9.154;2023-07-09T03:48:16;27.63;;;4.60;;
2023;SDS011;1016;48.770;9.154;2023-07-09T03:50:43;27.10;;;4.80;;
2023;SDS011;1016;48.770;9.154;2023-07-09T03:53:10;25.95;;;4.40;;
2023;SDS011;1016;48.770;9.154;2023-07-09T03:55:36;25.57;;;4.50;;
2023;SDS011;1016;48.770;9.154;2023-07-09T03:58:02;26.38;;;4.38;;
2023;SDS011;1016;48.770;9.154;2023-07-09T04:00:28;26.92;;;4.82;;
2023;SDS011;1016;48.770;9.154;2023-07-09T04:02:54;26.50;;;4.50;;
2023;SDS011;1016;48.770;9.154;2023-07-09T04:05:21;27.10;;;4.60;;
2023;SDS011;1016;48.770;9.154;2023-07-09T04:07:48;26.40;;;4.75;;
2023;SDS011;1016;48.770;9.154;2023-07-09T04:10:14;27.73;;;4.70;;
2023;SDS011;1016;48.770;9.154;2023-07-09T04:12:39;27.10;;;4.50;;
2023;SDS011;1016;48.770;9.154;2023-07-09T04:15:05;27.70;;;4.83;;
2023;SDS011;1016;48.770;9.154;2023-07-09T04:17:32;26.80;;;4.95;;
2023;SDS011;1016;48.770;9.154;2023-07-09T04:19:58;26.87;;;5.00;;
2023;SDS011;1016;48.770;9.154;2023-07-09T04:22:23;27.08;;;4.72;;
2023;SDS011;1016;48.770;9.154;2023-07-09T04:24:49;26.50;;;5.00;;
2023;SDS011;1016;48.770;9.154;2023-07-09T04:27:15;27.27;;;5.28;;
2023;SDS011;1016;48.770;9.154;2023-07-09T04:29:41;27.50;;;5.60;;
2023;SDS011;1016;48.770;9.154;2023-07-09T04:32:07;26.40;;;4.60;;
2023;SDS011;1016;48.770;9.154;2023-07-09T04:34:36;26.05;;;4.78;;
2023;SDS011;1016;48.770;9.154;2023-07-09T04:37:04;26.87;;;5.30;;
2023;SDS011;1016;48.770;9.154;2023-07-09T04:39:31;28.03;;;5.20;;
2023;SDS011;1016;48.770;9.154;2023-07-09T04:41:56;25.52;;;4.75;;
2023;SDS011;1016;48.770;9.154;2023-07-09T04:44:22;27.47;;;5.00;;
2023;SDS011;1016;48.770;9.154;2023-07-09T04:46:47;27.30;;;4.93;;
2023;SDS011;1016;48.770;9.154;2023-07-09T04:49:14;26.98;;;4.70;;
2023;SDS011;1016;48.770;9.154;2023-07-09T04:51:39;27.48;;;5.10;;
2023;SDS011;1016;48.770;9.154;2023-07-09T04:54:05;29.60;;;5.50;;
2023;SDS011;1016;48.770;9.154;2023-07-09T04:56:30;27.30;;;5.00;;
2023;SDS011;1016;48.770;9.154;2023-07-09T04:58:56;27.42;;;4.70;;
2023;SDS011;1016;48.770;9.154;2023-07-09T05:01:22;26.83;;;5.10;;
2023;SDS011;1016;48.770;9.154;2023-07-09T05:03:48;26.60;;;4.90;;
2023;SDS011;1016;48.770;9.154;2023-07-09T05:06:13;27.58;;;4.93;;
2023;SDS011;1016;48.770;9.154;2023-07-09T05:08:39;27.23;;;5.03;;
2023;SDS011;1016;48.770;9.154;2023-07-09T05:11:06;28.02;;;4.90;;
2023;SDS011;1016;48.770;9.154;2023-07-09T05:13:31;26.83;;;5.00;;
2023;SDS011;1016;48.770;9.154;2023-07-09T05:15:57;27.67;;;4.90;;
2023;SDS011;1016;48.770;9.154;2023-07-09T05:18:22;26.50;;;5.20;;
2023;SDS011;1016;48.770;9.154;2023-07-09T05:20:49;27.33;;;5.47;;
2023;SDS011;1016;48.770;9.154;2023-07-09T05:23:14;27.00;;;5.00;;
2023;SDS011;1016;48.770;9.154;2023-07-09T05:25:41;26.88;;;4.80;;
2023;SDS011;1016;48.770;9.154;2023-07-09T05:28:07;27.23;;;5.00;;
2023;SDS011;1016;48.770;9.154;2023-07-09T05:30:32;26.43;;;4.83;;
2023;SDS011;1016;48.770;9.154;2023-07-09T05:32:58;27.20;;;5.00;;
2023;SDS011;1016;48.770;9.154;2023-07-09T05:35:24;26.80;;;5.38;;
2023;SDS011;1016;48.770;9.154;2023-07-09T05:37:54;27.13;;;5.20;;
2023;SDS011;1016;48.770;9.154;2023-07-09T05:40:20;26.38;;;4.75;;
2023;SDS011;1016;48.770;9.154;2023-07-09T05:42:46;26.90;;;5.20;;
2023;SDS011;1016;48.770;9.154;2023-07-09T05:45:13;26.70;;;5.20;;
2023;SDS011;1016;48.770;9.154;2023-07-09T05:47:39;28.10;;;5.35;;
2023;SDS011;1016;48.770;9.154;2023-07-09T05:50:04;28.23;;;5.10;;
2023;SDS011;1016;48.770;9.154;2023-07-09T05:52:30;27.33;;;5.05;;
2023;SDS011;1016;48.770;9.154;2023-07-09T05:54:56;27.30;;;4.80;;
2023;SDS011;1016;48.770;9.154;2023-07-09T05:57:21;27.33;;;5.30;;
2023;SDS011;1016;48.770;9.154;2023-07-09T05:59:47;26.85;;;5.25;;
2023;SDS011;1016;48.770;9.154;2023-07-09T06:02:14;26.40;;;5.27;;
2023;SDS011;1016;48.770;9.154;2023-07-09T06:04:41;27.70;;;5.37;;
2023;SDS011;1016;48.770;9.154;2023-07-09T06:07:07;27.77;;;5.40;;
2023;SDS011;1016;48.770;9.154;2023-07-09T06:09:34;26.77;;;5.25;;
2023;SDS011;1016;48.770;9.154;2023-07-09T06:11:59;26.65;;;5.15;;
2023;SDS011;1016;48.770;9.154;2023-07-09T06:14:26;26.50;;;4.80;;
2023;SDS011;1016;48.770;9.154;2023-07-09T06:16:51;26.05;;;4.85;;
2023;SDS011;1016;48.770;9.154;2023-07-09T06:19:17;26.73;;;5.30;;
2023;SDS011;1016;48.770;9.154;2023-07-09T06:21:42;26.03;;;5.10;;
2023;SDS011;1016;48.770;9.154;2023-07-09T06:24:08;28.00;;;5.20;;
2023;SDS011;1016;48.770;9.154;2023-07-09T06:26:34;26.90;;;5.00;;
2023;SDS011;1016;48.770;9.154;2023-07-09T06:28:59;27.10;;;5.10;;
2023;SDS011;1016;48.770;9.154;2023-07-09T06:31:25;27.27;;;5.20;;
2023;SDS011;1016;48.770;9.154;2023-07-09T06:33:50;26.90;;;5.10;;
2023;SDS011;1016;48.770;9.154;2023-07-09T06:36:17;27.05;;;4.93;;
2023;SDS011;1016;48.770;9.154;2023-07-09T06:38:43;27.10;;;5.20;;
2023;SDS011;1016;48.770;9.154;2023-07-09T06:41:09;27.10;;;4.87;;
2023;SDS011;1016;48.770;9.154;2023-07-09T06:43:35;27.50;;;4.97;;
2023;SDS011;1016;48.770;9.154;2023-07-09T06:46:03;27.15;;;5.20;;
2023;SDS011;1016;48.770;9.154;2023-07-09T06:48:30;26.83;;;5.22;;
2023;SDS011;1016;48.770;9.154;2023-07-09T06:50:56;26.80;;;5.20;;
2023;SDS011;1016;48.770;9.154;2023-07-09T06:53:24;26.77;;;5.40;;
2023;SDS011;1016;48.770;9.154;2023-07-09T06:55:50;27.33;;;5.37;;
2023;SDS011;1016;48.770;9.154;2023-07-09T06:58:17;27.20;;;5.30;;
2023;SDS011;1016;48.770;9.154;2023-07-09T07:00:44;26.70;;;5.47;;
2023;SDS011;1016;48.770;9.154;2023-07-09T07:03:10;27.80;;;5.60;;
2023;SDS011;1016;48.770;9.154;2023-07-09T07:05:36;27.42;;;5.53;;
2023;SDS011;1016;48.770;9.154;2023-07-09T07:08:02;26.40;;;5.17;;
2023;SDS011;1016;48.770;9.154;2023-07-09T07:10:28;27.35;;;5.20;;
2023;SDS011;1016;48.770;9.154;2023-07-09T07:12:54;26.80;;;5.03;;
2023;SDS011;1016;48.770;9.154;2023-07-09T07:15:21;28.00;;;5.67;;
2023;SDS011;1016;48.770;9.154;2023-07-09T07:17:47;27.10;;;5.20;;
2023;SDS011;1016;48.770;9.154;2023-07-09T07:20:13;27.40;;;4.90;;
2023;SDS011;1016;48.770;9.154;2023-07-09T07:22:40;27.15;;;5.45;;
2023;SDS011;1016;48.770;9.154;2023-07-09T07:25:06;28.40;;;5.30;;
2023;SDS011;1016;48.770;9.154;2023-07-09T07:27:32;26.40;;;4.90;;
2023;SDS011;1016;48.770;9.154;2023-07-09T07:29:58;27.83;;;5.00;;
2023;SDS011;1016;48.770;9.154;2023-07-09T07:32:23;27.27;;;5.40;;
2023;SDS011;1016;48.770;9.154;2023-07-09T07:34:49;27.20;;;5.30;;
2023;SDS011;1016;48.770;9.154;2023-07-09T07:37:15;26.70;;;4.93;;
2023;SDS011;1016;48.770;9.154;2023-07-09T07:39:44;26.92;;;5.10;;
2023;SDS011;1016;48.770;9.154;2023-07-09T07:42:09;27.40;;;5.40;;
2023;SDS011;1016;48.770;9.154;2023-07-09T07:44:35;27.47;;;5.80;;
2023;SDS011;1016;48.770;9.154;2023-07-09T07:47:01;27.37;;;5.13;;
2023;SDS011;1016;48.770;9.154;2023-07-09T07:49:26;28.30;;;5.50;;
2023;SDS011;1016;48.770;9.154;2023-07-09T07:51:52;27.63;;;5.47;;
2023;SDS011;1016;48.770;9.154;2023-07-09T07:54:17;28.10;;;5.60;;
2023;SDS011;1016;48.770;9.154;2023-07-09T07:56:43;26.80;;;5.10;;
2023;SDS011;1016;48.770;9.154;2023-07-09T07:59:08;27.23;;;5.40;;
2023;SDS011;1016;48.770;9.154;2023-07-09T08:01:34;26.92;;;5.50;;
2023;SDS011;1016;48.770;9.154;2023-07-09T08:04:01;27.95;;;5.20;;
2023;SDS011;1016;48.770;9.154;2023-07-09T08:06:27;27.48;;;5.30;;
2023;SDS011;1016;48.770;9.154;2023-07-09T08:08:53;26.42;;;5.03;;
2023;SDS011;1016;48.770;9.154;2023-07-09T08:11:18;27.67;;;5.30;;
2023;SDS011;1016;48.770;9.154;2023-07-09T08:13:44;29.37;;;5.30;;
2023;SDS011;1016;48.770;9.154;2023-07-09T08:16:09;27.30;;;5.10;;
2023;SDS011;1016;48.770;9.154;2023-07-09T08:18:36;27.15;;;5.28;;
2023;SDS011;1016;48.770;9.154;2023-07-09T08:21:03;27.90;;;5.50;;
2023;SDS011;1016;48.770;9.154;2023-07-09T08:23:29;26.85;;;5.10;;
2023;SDS011;1016;48.770;9.154;2023-07-09T08:25:55;27.40;;;5.00;;
2023;SDS011;1016;48.770;9.154;2023-07-09T08:28:22;27.42;;;5.10;;
2023;SDS011;1016;48.770;9.154;2023-07-09T08:30:51;28.15;;;4.90;;
2023;SDS011;1016;48.770;9.154;2023-07-09T08:33:17;29.05;;;5.80;;
2023;SDS011;1016;48.770;9.154;2023-07-09T08:35:43;28.40;;;4.90;;
2023;SDS011;1016;48.770;9.154;2023-07-09T08:38:09;27.15;;;4.80;;
2023;SDS011;1016;48.770;9.154;2023-07-09T08:40:39;27.15;;;5.30;;
2023;SDS011;1016;48.770;9.154;2023-07-09T08:43:10;28.83;;;5.28;;
2023;SDS011;1016;48.770;9.154;2023-07-09T08:46:16;27.30;;;5.10;;
2023;SDS011;1016;48.770;9.154;2023-07-09T08:48:42;27.67;;;4.80;;
2023;SDS011;1016;48.770;9.154;2023-07-09T08:53:48;27.85;;;5.00;;
2023;SDS011;1016;48.770;9.154;2023-07-09T08:56:18;27.98;;;4.93;;
2023;SDS011;1016;48.770;9.154;2023-07-09T08:58:44;27.73;;;4.90;;
2023;SDS011;1016;48.770;9.154;2023-07-09T09:01:17;29.83;;;4.95;;
2023;SDS011;1016;48.770;9.154;2023-07-09T09:03:56;27.10;;;5.10;;
2023;SDS011;1016;48.770;9.154;2023-07-09T09:06:26;27.85;;;5.50;;
2023;SDS011;1016;48.770;9.154;2023-07-09T09:09:03;26.40;;;4.83;;
2023;SDS011;1016;48.770;9.154;2023-07-09T09:11:46;26.67;;;5.10;;
2023;SDS011;1016;48.770;9.154;2023-07-09T09:16:55;27.40;;;5.00;;
2023;SDS011;1016;48.770;9.154;2023-07-09T09:22:09;27.73;;;5.55;;
2023;SDS011;1016;48.770;9.154;2023-07-09T09:27:28;27.88;;;5.20;;
2023;SDS011;1016;48.770;9.154;2023-07-09T09:29:54;26.40;;;4.50;;
2023;SDS011;1016;48.770;9.154;2023-07-09T09:32:25;27.80;;;5.00;;
2023;SDS011;1016;48.770;9.154;2023-07-09T09:34:52;27.25;;;5.28;;
2023;SDS011;1016;48.770;9.154;2023-07-09T09:37:26;28.20;;;4.90;;
2023;SDS011;1016;48.770;9.154;2023-07-09T09:39:54;26.88;;;4.70;;
2023;SDS011;1016;48.770;9.154;2023-07-09T09:42:20;27.10;;;5.27;;
2023;SDS011;1016;48.770;9.154;2023-07-09T12:03:21;27.87;;;4.50;;
2023;SDS011;1016;48.770;9.154;2023-07-09T12:06:01;28.75;;;4.60;;
2023;SDS011;1016;48.770;9.154;2023-07-09T12:08:32;26.37;;;4.40;;
2023;SDS011;1016;48.770;9.154;2023-07-09T12:11:03;30.37;;;5.07;;
2023;SDS011;1016;48.770;9.154;2023-07-09T12:13:35;27.10;;;4.70;;
2023;SDS011;1016;48.770;9.154;2023-07-09T12:16:04;27.13;;;5.17;;
2023;SDS011;1016;48.770;9.154;2023-07-09T12:18:52;26.47;;;4.27;;
2023;SDS011;1016;48.770;9.154;2023-07-09T12:21:18;24.87;;;3.40;;
2023;SDS011;1016;48.770;9.154;2023-07-09T12:23:44;29.90;;;4.23;;
2023;SDS011;1016;48.770;9.154;2023-07-09T12:26:11;25.77;;;3.90;;
2023;SDS011;1016;48.770;9.154;2023-07-09T12:28:39;26.33;;;4.10;;
2023;SDS011;1016;48.770;9.154;2023-07-09T12:31:10;27.97;;;5.03;;
2023;SDS011;1016;48.770;9.154;2023-07-09T12:33:50;28.33;;;4.60;;
2023;SDS011;1016;48.770;9.154;2023-07-09T12:36:18;28.00;;;4.03;;
2023;SDS011;1016;48.770;9.154;2023-07-09T12:38:49;26.77;;;4.70;;
2023;SDS011;1016;48.770;9.154;2023-07-09T12:41:18;26.53;;;4.40;;
2023;SDS011;1016;48.770;9.154;2023-07-09T12:43:48;28.67;;;4.33;;
2023;SDS011;1016;48.770;9.154;2023-07-09T12:46:14;26.87;;;4.73;;
2023;SDS011;1016;48.770;9.154;2023-07-09T12:48:40;29.20;;;4.50;;
2023;SDS011;1016;48.770;9.154;2023-07-09T12:51:09;26.03;;;4.57;;
2023;SDS011;1016;48.770;9.154;2023-07-09T12:53:35;26.87;;;4.27;;
2023;SDS011;1016;48.770;9.154;2023-07-09T12:56:02;29.53;;;5.20;;
2023;SDS011;1016;48.770;9.154;2023-07-09T12:58:36;29.20;;;5.93;;
2023;SDS011;1016;48.770;9.154;2023-07-09T13:01:07;27.90;;;4.70;;
2023;SDS011;1016;48.770;9.154;2023-07-09T13:03:38;25.70;;;4.43;;
2023;SDS011;1016;48.770;9.154;2023-07-09T13:06:05;27.73;;;4.60;;
2023;SDS011;1016;48.770;9.154;2023-07-09T13:08:54;29.67;;;4.70;;
2023;SDS011;1016;48.770;9.154;2023-07-09T13:11:24;28.53;;;5.33;;
2023;SDS011;1016;48.770;9.154;2023-07-09T13:13:57;27.30;;;4.57;;
2023;SDS011;1016;48.770;9.154;2023-07-09T13:16:25;25.37;;;4.57;;
2023;SDS011;1016;48.770;9.154;2023-07-09T13:18:51;27.07;;;4.40;;
2023;SDS011;1016;48.770;9.154;2023-07-09T13:21:17;30.30;;;4.80;;
2023;SDS011;1016;48.770;9.154;2023-07-09T13:23:43;27.60;;;4.30;;
2023;SDS011;1016;48.770;9.154;2023-07-09T13:26:09;28.23;;;4.10;;
2023;SDS011;1016;48.770;9.154;2023-07-09T13:28:35;25.87;;;4.40;;
2023;SDS011;1016;48.770;9.154;2023-07-09T13:31:01;27.93;;;4.70;;
2023;SDS011;1016;48.770;9.154;2023-07-09T13:33:41;27.67;;;3.77;;
2023;SDS011;1016;48.770;9.154;2023-07-09T13:36:07;25.93;;;3.73;;
2023;SDS011;1016;48.770;9.154;2023-07-09T13:38:33;27.60;;;4.57;;
2023;SDS011;1016;48.770;9.154;2023-07-09T13:41:00;27.73;;;4.03;;
2023;SDS011;1016;48.770;9.154;2023-07-09T13:43:35;28.73;;;4.40;;
2023;SDS011;1016;48.770;9.154;2023-07-09T13:46:02;29.70;;;4.13;;
2023;SDS011;1016;48.770;9.154;2023-07-09T13:48:32;27.33;;;3.90;;
2023;SDS011;1016;48.770;9.154;2023-07-09T13:50:58;26.57;;;4.10;;
2023;SDS011;1016;48.770;9.154;2023-07-09T13:53:25;25.57;;;3.90;;
2023;SDS011;1016;48.770;9.154;2023-07-09T13:55:55;30.00;;;4.63;;
2023;SDS011;1016;48.770;9.154;2023-07-09T13:58:21;25.10;;;3.73;;
2023;SDS011;1016;48.770;9.154;2023-07-09T14:00:49;28.27;;;4.00;;
2023;SDS011;1016;48.770;9.154;2023-07-09T14:03:20;26.40;;;4.10;;
2023;SDS011;1016;48.770;9.154;2023-07-09T14:05:47;26.73;;;3.90;;
2023;SDS011;1016;48.770;9.154;2023-07-09T14:08:13;24.70;;;4.17;;
2023;SDS011;1016;48.770;9.154;2023-07-09T14:10:38;24.77;;;3.60;;
2023;SDS011;1016;48.770;9.154;2023-07-09T14:13:04;23.90;;;3.87;;
2023;SDS011;1016;48.770;9.154;2023-07-09T14:15:30;25.00;;;3.90;;
2023;SDS011;1016;48.770;9.154;2023-07-09T14:17:56;24.17;;;3.67;;
2023;SDS011;1016;48.770;9.154;2023-07-09T14:20:23;25.10;;;4.30;;
2023;SDS011;1016;48.770;9.154;2023-07-09T14:22:49;27.23;;;4.10;;
2023;SDS011;1016;48.770;9.154;2023-07-09T14:25:19;24.53;;;4.23;;
2023;SDS011;1016;48.770;9.154;2023-07-09T14:27:48;24.30;;;3.90;;
2023;SDS011;1016;48.770;9.154;2023-07-09T14:30:23;25.50;;;4.10;;
2023;SDS011;1016;48.770;9.154;2023-07-09T14:32:50;24.70;;;3.80;;
2023;SDS011;1016;48.770;9.154;2023-07-09T14:35:18;26.07;;;3.90;;
2023;SDS011;1016;48.770;9.154;2023-07-09T14:37:46;24.60;;;3.97;;
2023;SDS011;1016;48.770;9.154;2023-07-09T14:40:13;24.17;;;3.90;;
2023;SDS011;1016;48.770;9.154;2023-07-09T14:42:40;24.40;;;3.73;;
2023;SDS011;1016;48.770;9.154;2023-07-09T14:45:15;28.13;;;3.93;;
2023;SDS011;1016;48.770;9.154;2023-07-09T14:47:53;23.97;;;3.30;;
2023;SDS011;1016;48.770;9.154;2023-07-09T14:50:19;24.80;;;3.70;;
2023;SDS011;1016;48.770;9.154;2023-07-09T14:52:47;26.13;;;3.97;;
2023;SDS011;1016;48.770;9.154;2023-07-09T14:55:14;25.90;;;3.93;;
2023;SDS011;1016;48.770;9.154;2023-07-09T14:57:44;28.27;;;3.80;;
2023;SDS011;1016;48.770;9.154;2023-07-09T15:00:18;27.57;;;4.03;;
2023;SDS011;1016;48.770;9.154;2023-07-09T15:02:45;24.10;;;3.43;;
2023;SDS011;1016;48.770;9.154;2023-07-09T15:05:19;25.70;;;3.87;;
2023;SDS011;1016;48.770;9.154;2023-07-09T15:07:46;25.83;;;3.70;;
2023;SDS011;1016;48.770;9.154;2023-07-09T15:10:13;25.23;;;3.73;;
2023;SDS011;1016;48.770;9.154;2023-07-09T15:12:40;25.07;;;3.80;;
2023;SDS011;1016;48.770;9.154;2023-07-09T15:15:18;27.87;;;4.00;;
2023;SDS011;1016;48.770;9.154;2023-07-09T15:17:55;27.23;;;3.67;;
2023;SDS011;1016;48.770;9.154;2023-07-09T15:20:23;24.57;;;4.13;;
2023;SDS011;1016;48.770;9.154;2023-07-09T15:22:51;25.20;;;4.20;;
2023;SDS011;1016;48.770;9.154;2023-07-09T15:25:24;24.97;;;3.37;;
2023;SDS011;1016;48.770;9.154;2023-07-09T15:27:51;23.60;;;3.10;;
2023;SDS011;1016;48.770;9.154;2023-07-09T15:30:18;24.23;;;3.60;;
2023;SDS011;1016;48.770;9.154;2023-07-09T15:32:45;27.13;;;3.93;;
2023;SDS011;1016;48.770;9.154;2023-07-09T15:35:12;24.47;;;3.33;;
2023;SDS011;1016;48.770;9.154;2023-07-09T15:37:38;23.57;;;3.27;;
2023;SDS011;1016;48.770;9.154;2023-07-09T15:40:05;26.33;;;3.47;;
2023;SDS011;1016;48.770;9.154;2023-07-09T15:42:49;24.70;;;3.50;;
2023;SDS011;1016;48.770;9.154;2023-07-09T15:45:19;32.00;;;4.10;;
2023;SDS011;1016;48.770;9.154;2023-07-09T15:50:22;26.00;;;3.90;;
2023;SDS011;1016;48.770;9.154;2023-07-09T15:52:50;23.70;;;3.47;;
2023;SDS011;1016;48.770;9.154;2023-07-09T15:55:26;28.43;;;3.90;;
2023;SDS011;1016;48.770;9.154;2023-07-09T15:57:53;24.83;;;3.77;;
2023;SDS011;1016;48.770;9.154;2023-07-09T16:00:21;24.80;;;3.70;;
2023;SDS011;1016;48.770;9.154;2023-07-09T16:02:49;25.20;;;4.03;;
2023;SDS011;1016;48.770;9.154;2023-07-09T16:07:48;26.90;;;4.07;;
2023;SDS011;1016;48.770;9.154;2023-07-09T16:10:14;25.90;;;3.40;;
2023;SDS011;1016;48.770;9.154;2023-07-09T16:12:39;25.40;;;4.10;;
